Airfield :
LOGIN :

Register | Disclaimer

   EN    FR    IT 

 










Legend :    VFR   Marginal VFR   IFR   Intensive IFR   Very Intensive IFR
Visi :
Ceiling :
>= 8 km
>= 3000ft
5 to 8 km
1000 to 3000 ft
1500m to 5 km
500 to 1000 ft
800 to 1500m
200 to 500 ft
< 800m
< 200 ft
Symbols :   Thunderstorms  Fog  Heavy snow  Heavy precipitations  Wind > 20 kt
SIGMETs :     Misc.  Thunderstorms  Icing  Turbulence  Mountain Waves  Volcanic Ashes







- Airport Elevation : 125 ft
- IATA code : MGL


EDLN - Mönchengladbach

CURRENT METAR :
  • 210920Z 28004KT 200V340 CAVOK 24/13 Q1011

EXPIRED METARs :
  • 210850Z 29005KT 230V340 CAVOK 23/14 Q1011
  • 210820Z 29004KT 210V320 CAVOK 23/14 Q1011
  • 210750Z 26004KT 200V360 CAVOK 22/14 Q1011
  • 210720Z 26004KT 210V330 CAVOK 22/14 Q1011
  • 210650Z 31005KT CAVOK 21/15 Q1011

TAF TAF EDLN
Valid from the 21 at 09:00 until the 21 at 18:00 UTC


210800Z 2109/2118 30006KT CAVOK
PROB30
TEMPO 2113/2117 20010KT SHRA SCT050CB
No reported NOTAMs for that airfield.



MET'MAP, your aeronautical weather chart ! - Copyright ORBIFLY December 2007 - Disclaimer

ORBIFLY MET'MAP TEAM :

Programming & Development : Alexandra Zaïnal
Concept & Development : Baudouin d'Aumeries
Co-Development & Prog : Marc-Olivier Méhu
Technical & hardware support : Manuel Goepfert

Contact : metmap@orbifly.com




SOURCES & CREDITS :

   NOAA